sensor_id;sensor_type;location;lat;lon;timestamp;temperature;humidity
71175;DHT22;58876;51.994;4.472;2024-02-15T00:00:40;13.61;86.13
71175;DHT22;58876;51.994;4.472;2024-02-15T00:03:08;13.61;86.05
71175;DHT22;58876;51.994;4.472;2024-02-15T00:05:38;13.64;86.28
71175;DHT22;58876;51.994;4.472;2024-02-15T00:08:04;13.65;86.15
71175;DHT22;58876;51.994;4.472;2024-02-15T00:10:29;13.81;85.72
71175;DHT22;58876;51.994;4.472;2024-02-15T00:12:55;13.61;85.91
71175;DHT22;58876;51.994;4.472;2024-02-15T00:15:20;13.67;85.78
71175;DHT22;58876;51.994;4.472;2024-02-15T00:17:46;13.69;85.87
71175;DHT22;58876;51.994;4.472;2024-02-15T00:20:14;13.59;85.96
71175;DHT22;58876;51.994;4.472;2024-02-15T00:22:40;13.53;86.47
71175;DHT22;58876;51.994;4.472;2024-02-15T00:25:08;13.72;86.02
71175;DHT22;58876;51.994;4.472;2024-02-15T00:27:35;13.65;86.02
71175;DHT22;58876;51.994;4.472;2024-02-15T00:30:01;13.53;85.92
71175;DHT22;58876;51.994;4.472;2024-02-15T00:32:27;13.48;86.49
71175;DHT22;58876;51.994;4.472;2024-02-15T00:34:52;13.58;86.17
71175;DHT22;58876;51.994;4.472;2024-02-15T00:37:19;13.44;86.69
71175;DHT22;58876;51.994;4.472;2024-02-15T00:39:44;13.44;86.78
71175;DHT22;58876;51.994;4.472;2024-02-15T00:42:10;13.40;86.87
71175;DHT22;58876;51.994;4.472;2024-02-15T00:44:35;13.43;86.79
71175;DHT22;58876;51.994;4.472;2024-02-15T00:47:02;13.33;86.69
71175;DHT22;58876;51.994;4.472;2024-02-15T00:49:27;13.31;87.10
71175;DHT22;58876;51.994;4.472;2024-02-15T00:51:53;13.37;87.04
71175;DHT22;58876;51.994;4.472;2024-02-15T00:54:19;13.47;87.01
71175;DHT22;58876;51.994;4.472;2024-02-15T00:56:45;13.44;86.62
71175;DHT22;58876;51.994;4.472;2024-02-15T00:59:10;13.43;86.33
71175;DHT22;58876;51.994;4.472;2024-02-15T01:01:36;13.48;86.81
71175;DHT22;58876;51.994;4.472;2024-02-15T01:04:04;13.46;86.58
71175;DHT22;58876;51.994;4.472;2024-02-15T01:06:30;13.38;86.86
71175;DHT22;58876;51.994;4.472;2024-02-15T01:08:56;13.47;86.46
71175;DHT22;58876;51.994;4.472;2024-02-15T01:11:22;13.40;86.72
71175;DHT22;58876;51.994;4.472;2024-02-15T01:13:49;13.34;86.93
71175;DHT22;58876;51.994;4.472;2024-02-15T01:16:16;13.43;87.02
71175;DHT22;58876;51.994;4.472;2024-02-15T01:18:41;13.33;86.92
71175;DHT22;58876;51.994;4.472;2024-02-15T01:21:07;13.44;86.90
71175;DHT22;58876;51.994;4.472;2024-02-15T01:23:32;13.27;86.87
71175;DHT22;58876;51.994;4.472;2024-02-15T01:26:00;13.30;87.15
71175;DHT22;58876;51.994;4.472;2024-02-15T01:28:29;13.34;86.95
71175;DHT22;58876;51.994;4.472;2024-02-15T01:30:54;13.31;87.10
71175;DHT22;58876;51.994;4.472;2024-02-15T01:33:20;13.13;87.19
71175;DHT22;58876;51.994;4.472;2024-02-15T01:35:45;13.20;87.37
71175;DHT22;58876;51.994;4.472;2024-02-15T01:38:11;13.30;87.17
71175;DHT22;58876;51.994;4.472;2024-02-15T01:40:36;13.21;87.13
71175;DHT22;58876;51.994;4.472;2024-02-15T01:43:02;13.28;87.26
71175;DHT22;58876;51.994;4.472;2024-02-15T01:45:27;13.24;86.88
71175;DHT22;58876;51.994;4.472;2024-02-15T01:47:54;13.24;87.02
71175;DHT22;58876;51.994;4.472;2024-02-15T01:50:20;13.26;87.00
71175;DHT22;58876;51.994;4.472;2024-02-15T01:52:48;13.28;87.11
71175;DHT22;58876;51.994;4.472;2024-02-15T01:55:16;13.38;86.64
71175;DHT22;58876;51.994;4.472;2024-02-15T01:57:48;13.33;86.59
71175;DHT22;58876;51.994;4.472;2024-02-15T02:00:17;13.31;86.61
71175;DHT22;58876;51.994;4.472;2024-02-15T02:02:44;13.31;86.72
71175;DHT22;58876;51.994;4.472;2024-02-15T02:05:10;13.26;87.06
71175;DHT22;58876;51.994;4.472;2024-02-15T02:07:37;13.33;86.92
71175;DHT22;58876;51.994;4.472;2024-02-15T02:10:03;13.30;86.76
71175;DHT22;58876;51.994;4.472;2024-02-15T02:12:31;13.26;86.75
71175;DHT22;58876;51.994;4.472;2024-02-15T02:14:59;13.30;86.66
71175;DHT22;58876;51.994;4.472;2024-02-15T02:17:25;13.33;86.60
71175;DHT22;58876;51.994;4.472;2024-02-15T02:19:50;13.37;86.41
71175;DHT22;58876;51.994;4.472;2024-02-15T02:22:17;13.37;86.42
71175;DHT22;58876;51.994;4.472;2024-02-15T02:25:03;13.30;86.76
71175;DHT22;58876;51.994;4.472;2024-02-15T02:27:32;13.41;86.26
71175;DHT22;58876;51.994;4.472;2024-02-15T02:29:58;13.28;86.30
71175;DHT22;58876;51.994;4.472;2024-02-15T02:32:27;13.33;86.62
71175;DHT22;58876;51.994;4.472;2024-02-15T02:34:53;13.30;86.46
71175;DHT22;58876;51.994;4.472;2024-02-15T02:37:25;13.26;86.71
71175;DHT22;58876;51.994;4.472;2024-02-15T02:39:50;13.31;86.65
71175;DHT22;58876;51.994;4.472;2024-02-15T02:42:16;13.34;86.54
71175;DHT22;58876;51.994;4.472;2024-02-15T02:44:41;13.27;86.49
71175;DHT22;58876;51.994;4.472;2024-02-15T02:47:07;13.38;86.77
71175;DHT22;58876;51.994;4.472;2024-02-15T02:49:35;13.36;86.89
71175;DHT22;58876;51.994;4.472;2024-02-15T02:52:00;13.34;86.42
71175;DHT22;58876;51.994;4.472;2024-02-15T02:54:26;13.33;86.65
71175;DHT22;58876;51.994;4.472;2024-02-15T02:56:54;13.89;84.80
71175;DHT22;58876;51.994;4.472;2024-02-15T02:59:20;13.36;86.36
71175;DHT22;58876;51.994;4.472;2024-02-15T03:01:46;13.37;87.17
71175;DHT22;58876;51.994;4.472;2024-02-15T03:04:12;13.28;87.26
71175;DHT22;58876;51.994;4.472;2024-02-15T03:06:42;13.38;87.05
71175;DHT22;58876;51.994;4.472;2024-02-15T03:09:08;13.13;87.68
71175;DHT22;58876;51.994;4.472;2024-02-15T03:11:35;13.26;87.66
71175;DHT22;58876;51.994;4.472;2024-02-15T03:14:02;13.31;87.54
71175;DHT22;58876;51.994;4.472;2024-02-15T03:16:33;13.31;87.40
71175;DHT22;58876;51.994;4.472;2024-02-15T03:18:59;13.30;87.58
71175;DHT22;58876;51.994;4.472;2024-02-15T03:21:28;13.34;87.78
71175;DHT22;58876;51.994;4.472;2024-02-15T03:23:54;13.24;88.03
71175;DHT22;58876;51.994;4.472;2024-02-15T03:26:30;13.31;88.15
71175;DHT22;58876;51.994;4.472;2024-02-15T03:29:05;13.26;88.41
71175;DHT22;58876;51.994;4.472;2024-02-15T03:31:33;13.10;88.63
71175;DHT22;58876;51.994;4.472;2024-02-15T03:34:04;13.03;89.12
71175;DHT22;58876;51.994;4.472;2024-02-15T03:36:30;12.97;89.52
71175;DHT22;58876;51.994;4.472;2024-02-15T03:38:55;13.07;89.72
71175;DHT22;58876;51.994;4.472;2024-02-15T03:41:21;13.09;89.82
71175;DHT22;58876;51.994;4.472;2024-02-15T03:43:47;13.03;89.73
71175;DHT22;58876;51.994;4.472;2024-02-15T03:46:13;13.04;90.20
71175;DHT22;58876;51.994;4.472;2024-02-15T03:48:43;13.11;89.78
71175;DHT22;58876;51.994;4.472;2024-02-15T03:51:16;13.07;89.87
71175;DHT22;58876;51.994;4.472;2024-02-15T03:53:44;13.06;89.95
71175;DHT22;58876;51.994;4.472;2024-02-15T03:56:09;12.99;90.09
71175;DHT22;58876;51.994;4.472;2024-02-15T03:58:35;12.93;90.38
71175;DHT22;58876;51.994;4.472;2024-02-15T04:01:02;12.87;90.62
71175;DHT22;58876;51.994;4.472;2024-02-15T04:03:30;12.80;90.85
71175;DHT22;58876;51.994;4.472;2024-02-15T04:05:57;12.87;90.75
71175;DHT22;58876;51.994;4.472;2024-02-15T04:08:23;12.87;90.99
71175;DHT22;58876;51.994;4.472;2024-02-15T04:10:49;12.87;90.98
71175;DHT22;58876;51.994;4.472;2024-02-15T04:13:14;12.93;91.05
71175;DHT22;58876;51.994;4.472;2024-02-15T04:15:40;12.86;91.18
71175;DHT22;58876;51.994;4.472;2024-02-15T04:18:07;12.89;90.93
71175;DHT22;58876;51.994;4.472;2024-02-15T04:20:33;13.02;91.18
71175;DHT22;58876;51.994;4.472;2024-02-15T04:22:59;12.86;90.83
71175;DHT22;58876;51.994;4.472;2024-02-15T04:25:25;12.82;91.11
71175;DHT22;58876;51.994;4.472;2024-02-15T04:27:53;12.80;91.16
71175;DHT22;58876;51.994;4.472;2024-02-15T04:30:19;12.76;91.39
71175;DHT22;58876;51.994;4.472;2024-02-15T04:32:46;12.79;91.43
71175;DHT22;58876;51.994;4.472;2024-02-15T04:35:12;12.82;91.25
71175;DHT22;58876;51.994;4.472;2024-02-15T04:37:37;12.82;91.19
71175;DHT22;58876;51.994;4.472;2024-02-15T04:40:04;12.90;91.43
71175;DHT22;58876;51.994;4.472;2024-02-15T04:42:36;12.78;91.48
71175;DHT22;58876;51.994;4.472;2024-02-15T04:45:07;12.82;91.34
71175;DHT22;58876;51.994;4.472;2024-02-15T04:47:35;12.79;91.69
71175;DHT22;58876;51.994;4.472;2024-02-15T04:50:01;12.85;91.44
71175;DHT22;58876;51.994;4.472;2024-02-15T04:52:28;12.90;91.36
71175;DHT22;58876;51.994;4.472;2024-02-15T04:54:53;12.82;91.22
71175;DHT22;58876;51.994;4.472;2024-02-15T04:57:26;12.85;91.38
71175;DHT22;58876;51.994;4.472;2024-02-15T04:59:55;12.79;91.29
71175;DHT22;58876;51.994;4.472;2024-02-15T05:02:21;12.90;91.37
71175;DHT22;58876;51.994;4.472;2024-02-15T05:04:52;12.89;91.14
71175;DHT22;58876;51.994;4.472;2024-02-15T05:07:22;12.93;90.84
71175;DHT22;58876;51.994;4.472;2024-02-15T05:09:50;12.92;91.08
71175;DHT22;58876;51.994;4.472;2024-02-15T05:12:23;12.99;91.11
71175;DHT22;58876;51.994;4.472;2024-02-15T05:14:50;12.92;90.94
71175;DHT22;58876;51.994;4.472;2024-02-15T05:17:16;12.82;91.09
71175;DHT22;58876;51.994;4.472;2024-02-15T05:19:42;12.83;91.16
71175;DHT22;58876;51.994;4.472;2024-02-15T05:22:07;12.82;91.25
71175;DHT22;58876;51.994;4.472;2024-02-15T05:24:33;12.86;91.36
71175;DHT22;58876;51.994;4.472;2024-02-15T05:26:59;12.89;91.04
71175;DHT22;58876;51.994;4.472;2024-02-15T05:29:25;12.86;91.10
71175;DHT22;58876;51.994;4.472;2024-02-15T05:31:50;12.86;91.24
71175;DHT22;58876;51.994;4.472;2024-02-15T05:34:17;12.95;91.30
71175;DHT22;58876;51.994;4.472;2024-02-15T05:36:43;12.97;90.98
71175;DHT22;58876;51.994;4.472;2024-02-15T05:39:08;12.90;90.99
71175;DHT22;58876;51.994;4.472;2024-02-15T05:41:36;12.89;91.09
71175;DHT22;58876;51.994;4.472;2024-02-15T05:44:02;12.95;91.13
71175;DHT22;58876;51.994;4.472;2024-02-15T05:46:33;12.89;90.84
71175;DHT22;58876;51.994;4.472;2024-02-15T05:49:03;12.96;90.99
71175;DHT22;58876;51.994;4.472;2024-02-15T05:51:31;12.89;91.01
71175;DHT22;58876;51.994;4.472;2024-02-15T05:54:00;12.89;91.10
71175;DHT22;58876;51.994;4.472;2024-02-15T05:56:26;12.82;90.98
71175;DHT22;58876;51.994;4.472;2024-02-15T05:58:54;12.95;91.05
71175;DHT22;58876;51.994;4.472;2024-02-15T06:01:19;12.90;90.88
71175;DHT22;58876;51.994;4.472;2024-02-15T06:03:49;12.82;91.08
71175;DHT22;58876;51.994;4.472;2024-02-15T06:06:15;12.79;91.09
71175;DHT22;58876;51.994;4.472;2024-02-15T06:08:40;12.90;91.23
71175;DHT22;58876;51.994;4.472;2024-02-15T06:11:06;12.90;91.25
71175;DHT22;58876;51.994;4.472;2024-02-15T06:13:32;12.87;91.34
71175;DHT22;58876;51.994;4.472;2024-02-15T06:16:00;12.83;91.35
71175;DHT22;58876;51.994;4.472;2024-02-15T06:18:29;12.86;91.30
71175;DHT22;58876;51.994;4.472;2024-02-15T06:21:00;12.87;91.13
71175;DHT22;58876;51.994;4.472;2024-02-15T06:23:27;12.87;91.28
71175;DHT22;58876;51.994;4.472;2024-02-15T06:25:55;12.96;91.27
71175;DHT22;58876;51.994;4.472;2024-02-15T06:28:24;12.92;91.22
71175;DHT22;58876;51.994;4.472;2024-02-15T06:31:10;12.97;91.25
71175;DHT22;58876;51.994;4.472;2024-02-15T06:33:54;12.97;91.11
71175;DHT22;58876;51.994;4.472;2024-02-15T06:36:50;13.00;91.04
71175;DHT22;58876;51.994;4.472;2024-02-15T06:39:35;12.99;91.05
71175;DHT22;58876;51.994;4.472;2024-02-15T06:42:04;13.00;91.10
71175;DHT22;58876;51.994;4.472;2024-02-15T06:44:29;12.85;91.48
71175;DHT22;58876;51.994;4.472;2024-02-15T06:46:55;12.83;91.48
71175;DHT22;58876;51.994;4.472;2024-02-15T06:49:23;13.26;91.05
71175;DHT22;58876;51.994;4.472;2024-02-15T06:51:50;12.89;91.26
71175;DHT22;58876;51.994;4.472;2024-02-15T06:54:16;12.87;91.41
71175;DHT22;58876;51.994;4.472;2024-02-15T06:56:46;12.93;91.48
71175;DHT22;58876;51.994;4.472;2024-02-15T06:59:13;12.93;91.44
71175;DHT22;58876;51.994;4.472;2024-02-15T07:01:44;13.24;90.50
71175;DHT22;58876;51.994;4.472;2024-02-15T07:04:10;12.96;90.82
71175;DHT22;58876;51.994;4.472;2024-02-15T07:06:36;13.50;89.40
71175;DHT22;58876;51.994;4.472;2024-02-15T07:09:03;12.96;90.89
71175;DHT22;58876;51.994;4.472;2024-02-15T07:11:29;12.89;91.59
71175;DHT22;58876;51.994;4.472;2024-02-15T07:13:55;13.27;90.87
71175;DHT22;58876;51.994;4.472;2024-02-15T07:16:21;13.38;89.70
71175;DHT22;58876;51.994;4.472;2024-02-15T07:18:47;12.96;91.29
71175;DHT22;58876;51.994;4.472;2024-02-15T07:21:12;13.30;90.03
71175;DHT22;58876;51.994;4.472;2024-02-15T07:23:42;12.96;91.25
71175;DHT22;58876;51.994;4.472;2024-02-15T07:26:07;13.40;90.42
71175;DHT22;58876;51.994;4.472;2024-02-15T07:28:33;13.27;90.46
71175;DHT22;58876;51.994;4.472;2024-02-15T07:30:59;13.03;91.03
71175;DHT22;58876;51.994;4.472;2024-02-15T07:33:30;13.40;90.96
71175;DHT22;58876;51.994;4.472;2024-02-15T07:35:56;13.03;91.00
71175;DHT22;58876;51.994;4.472;2024-02-15T07:38:22;13.30;90.96
71175;DHT22;58876;51.994;4.472;2024-02-15T07:40:49;13.61;89.05
71175;DHT22;58876;51.994;4.472;2024-02-15T07:43:15;13.75;88.50
71175;DHT22;58876;51.994;4.472;2024-02-15T07:45:40;13.82;88.47
71175;DHT22;58876;51.994;4.472;2024-02-15T07:48:06;13.83;88.12
71175;DHT22;58876;51.994;4.472;2024-02-15T07:50:32;13.83;88.09
71175;DHT22;58876;51.994;4.472;2024-02-15T07:53:00;13.06;90.35
71175;DHT22;58876;51.994;4.472;2024-02-15T07:55:26;13.10;91.05
71175;DHT22;58876;51.994;4.472;2024-02-15T07:57:51;13.57;89.72
71175;DHT22;58876;51.994;4.472;2024-02-15T08:00:18;13.98;88.09
71175;DHT22;58876;51.994;4.472;2024-02-15T08:02:45;14.02;87.38
71175;DHT22;58876;51.994;4.472;2024-02-15T08:05:12;13.67;87.80
71175;DHT22;58876;51.994;4.472;2024-02-15T08:07:42;14.01;87.65
71175;DHT22;58876;51.994;4.472;2024-02-15T08:10:12;14.08;87.30
71175;DHT22;58876;51.994;4.472;2024-02-15T08:12:40;14.06;87.06
71175;DHT22;58876;51.994;4.472;2024-02-15T08:15:07;14.13;86.83
71175;DHT22;58876;51.994;4.472;2024-02-15T08:17:44;14.22;86.53
71175;DHT22;58876;51.994;4.472;2024-02-15T08:20:14;13.53;88.11
71175;DHT22;58876;51.994;4.472;2024-02-15T08:22:41;13.13;90.20
71175;DHT22;58876;51.994;4.472;2024-02-15T08:25:10;13.00;90.62
71175;DHT22;58876;51.994;4.472;2024-02-15T08:27:43;12.99;90.76
71175;DHT22;58876;51.994;4.472;2024-02-15T08:30:15;13.38;89.56
71175;DHT22;58876;51.994;4.472;2024-02-15T08:32:41;12.99;90.92
71175;DHT22;58876;51.994;4.472;2024-02-15T08:35:12;12.99;91.14
71175;DHT22;58876;51.994;4.472;2024-02-15T08:37:39;13.78;89.25
71175;DHT22;58876;51.994;4.472;2024-02-15T08:40:07;13.89;88.00
71175;DHT22;58876;51.994;4.472;2024-02-15T08:42:38;13.26;89.76
71175;DHT22;58876;51.994;4.472;2024-02-15T08:45:04;13.06;90.60
71175;DHT22;58876;51.994;4.472;2024-02-15T08:47:30;12.92;90.81
71175;DHT22;58876;51.994;4.472;2024-02-15T08:49:56;12.99;90.96
71175;DHT22;58876;51.994;4.472;2024-02-15T08:52:21;12.92;91.05
71175;DHT22;58876;51.994;4.472;2024-02-15T08:54:46;13.67;89.50
71175;DHT22;58876;51.994;4.472;2024-02-15T08:57:12;14.02;87.42
71175;DHT22;58876;51.994;4.472;2024-02-15T08:59:39;14.32;86.44
71175;DHT22;58876;51.994;4.472;2024-02-15T09:02:05;13.38;89.48
71175;DHT22;58876;51.994;4.472;2024-02-15T09:04:31;13.20;90.10
71175;DHT22;58876;51.994;4.472;2024-02-15T09:06:56;13.13;90.06
71175;DHT22;58876;51.994;4.472;2024-02-15T09:09:22;13.26;90.22
71175;DHT22;58876;51.994;4.472;2024-02-15T09:11:47;13.21;89.83
71175;DHT22;58876;51.994;4.472;2024-02-15T09:14:13;13.21;90.06
71175;DHT22;58876;51.994;4.472;2024-02-15T09:16:38;13.79;88.26
71175;DHT22;58876;51.994;4.472;2024-02-15T09:19:05;13.65;88.24
71175;DHT22;58876;51.994;4.472;2024-02-15T09:21:31;13.95;87.61
71175;DHT22;58876;51.994;4.472;2024-02-15T09:24:01;13.98;87.85
71175;DHT22;58876;51.994;4.472;2024-02-15T09:26:30;14.08;86.95
71175;DHT22;58876;51.994;4.472;2024-02-15T09:28:55;13.50;88.63
71175;DHT22;58876;51.994;4.472;2024-02-15T09:31:21;14.06;87.66
71175;DHT22;58876;51.994;4.472;2024-02-15T09:33:47;14.22;86.32
71175;DHT22;58876;51.994;4.472;2024-02-15T09:36:12;14.27;86.12
71175;DHT22;58876;51.994;4.472;2024-02-15T09:38:39;13.72;88.60
71175;DHT22;58876;51.994;4.472;2024-02-15T09:41:04;13.55;89.19
71175;DHT22;58876;51.994;4.472;2024-02-15T09:43:34;13.47;89.21
71175;DHT22;58876;51.994;4.472;2024-02-15T09:45:59;13.69;89.08
71175;DHT22;58876;51.994;4.472;2024-02-15T09:48:29;13.71;89.12
71175;DHT22;58876;51.994;4.472;2024-02-15T09:50:58;13.82;88.84
71175;DHT22;58876;51.994;4.472;2024-02-15T09:53:26;13.81;88.65
71175;DHT22;58876;51.994;4.472;2024-02-15T09:55:53;13.92;89.02
71175;DHT22;58876;51.994;4.472;2024-02-15T09:58:19;14.13;88.70
71175;DHT22;58876;51.994;4.472;2024-02-15T10:00:45;14.06;88.17
71175;DHT22;58876;51.994;4.472;2024-02-15T10:03:18;14.01;88.46
71175;DHT22;58876;51.994;4.472;2024-02-15T10:05:43;14.04;88.24
71175;DHT22;58876;51.994;4.472;2024-02-15T10:08:09;13.83;88.32
71175;DHT22;58876;51.994;4.472;2024-02-15T10:10:36;13.96;88.43
71175;DHT22;58876;51.994;4.472;2024-02-15T10:13:02;13.96;88.29
71175;DHT22;58876;51.994;4.472;2024-02-15T10:15:38;13.94;88.57
71175;DHT22;58876;51.994;4.472;2024-02-15T10:18:05;14.01;88.33
71175;DHT22;58876;51.994;4.472;2024-02-15T10:20:34;13.94;88.39
71175;DHT22;58876;51.994;4.472;2024-02-15T10:25:27;14.22;87.85
71175;DHT22;58876;51.994;4.472;2024-02-15T10:28:12;14.68;87.24
71175;DHT22;58876;51.994;4.472;2024-02-15T10:30:44;14.64;86.45
71175;DHT22;58876;51.994;4.472;2024-02-15T10:33:18;14.65;86.50
71175;DHT22;58876;51.994;4.472;2024-02-15T10:35:46;14.87;85.60
71175;DHT22;58876;51.994;4.472;2024-02-15T10:38:11;14.98;85.50
71175;DHT22;58876;51.994;4.472;2024-02-15T10:40:39;14.70;86.27
71175;DHT22;58876;51.994;4.472;2024-02-15T10:43:10;14.74;87.02
71175;DHT22;58876;51.994;4.472;2024-02-15T10:45:39;14.92;86.20
71175;DHT22;58876;51.994;4.472;2024-02-15T10:48:09;15.24;86.24
71175;DHT22;58876;51.994;4.472;2024-02-15T10:50:36;15.49;84.83
71175;DHT22;58876;51.994;4.472;2024-02-15T10:56:12;15.26;85.07
71175;DHT22;58876;51.994;4.472;2024-02-15T10:58:47;15.32;84.56
71175;DHT22;58876;51.994;4.472;2024-02-15T11:01:17;15.26;85.10
71175;DHT22;58876;51.994;4.472;2024-02-15T11:03:57;15.38;85.22
71175;DHT22;58876;51.994;4.472;2024-02-15T11:06:27;15.67;83.97
71175;DHT22;58876;51.994;4.472;2024-02-15T11:08:56;15.64;83.90
71175;DHT22;58876;51.994;4.472;2024-02-15T11:11:29;15.50;84.11
71175;DHT22;58876;51.994;4.472;2024-02-15T11:16:52;15.55;84.07
71175;DHT22;58876;51.994;4.472;2024-02-15T11:19:41;15.55;84.41
71175;DHT22;58876;51.994;4.472;2024-02-15T11:22:16;15.66;84.91
71175;DHT22;58876;51.994;4.472;2024-02-15T11:24:49;15.45;84.62
71175;DHT22;58876;51.994;4.472;2024-02-15T11:27:30;15.69;84.00
71175;DHT22;58876;51.994;4.472;2024-02-15T11:30:01;15.74;83.90
71175;DHT22;58876;51.994;4.472;2024-02-15T11:32:45;15.83;83.42
71175;DHT22;58876;51.994;4.472;2024-02-15T11:35:26;15.96;83.03
71175;DHT22;58876;51.994;4.472;2024-02-15T11:37:57;15.55;84.28
71175;DHT22;58876;51.994;4.472;2024-02-15T11:43:07;15.74;84.08
71175;DHT22;58876;51.994;4.472;2024-02-15T11:45:34;15.64;83.80
71175;DHT22;58876;51.994;4.472;2024-02-15T11:48:10;15.60;84.10
71175;DHT22;58876;51.994;4.472;2024-02-15T11:50:38;15.64;83.52
71175;DHT22;58876;51.994;4.472;2024-02-15T11:53:07;15.98;81.48
71175;DHT22;58876;51.994;4.472;2024-02-15T11:55:37;15.79;82.51
71175;DHT22;58876;51.994;4.472;2024-02-15T11:58:07;15.90;82.02
71175;DHT22;58876;51.994;4.472;2024-02-15T12:00:36;16.24;81.85
71175;DHT22;58876;51.994;4.472;2024-02-15T12:03:22;16.26;80.99
71175;DHT22;58876;51.994;4.472;2024-02-15T12:06:06;16.52;80.94
71175;DHT22;58876;51.994;4.472;2024-02-15T12:08:52;16.58;80.28
71175;DHT22;58876;51.994;4.472;2024-02-15T12:11:37;16.59;80.17
71175;DHT22;58876;51.994;4.472;2024-02-15T12:14:21;16.73;80.03
71175;DHT22;58876;51.994;4.472;2024-02-15T12:19:53;17.09;79.06
71175;DHT22;58876;51.994;4.472;2024-02-15T12:22:45;16.69;78.10
71175;DHT22;58876;51.994;4.472;2024-02-15T12:25:16;16.87;78.94
71175;DHT22;58876;51.994;4.472;2024-02-15T12:27:45;17.07;78.85
71175;DHT22;58876;51.994;4.472;2024-02-15T12:30:16;17.13;77.47
71175;DHT22;58876;51.994;4.472;2024-02-15T12:32:48;17.13;77.13
71175;DHT22;58876;51.994;4.472;2024-02-15T12:35:19;17.02;77.30
71175;DHT22;58876;51.994;4.472;2024-02-15T12:37:46;17.28;76.83
71175;DHT22;58876;51.994;4.472;2024-02-15T12:40:15;17.19;76.40
71175;DHT22;58876;51.994;4.472;2024-02-15T12:42:43;17.06;75.09
71175;DHT22;58876;51.994;4.472;2024-02-15T12:45:20;17.21;74.10
71175;DHT22;58876;51.994;4.472;2024-02-15T12:47:56;17.45;73.05
71175;DHT22;58876;51.994;4.472;2024-02-15T12:50:29;17.98;71.79
71175;DHT22;58876;51.994;4.472;2024-02-15T12:52:55;18.03;71.47
71175;DHT22;58876;51.994;4.472;2024-02-15T12:57:56;17.79;72.26
71175;DHT22;58876;51.994;4.472;2024-02-15T13:00:24;17.85;72.45
71175;DHT22;58876;51.994;4.472;2024-02-15T13:02:55;18.12;72.76
71175;DHT22;58876;51.994;4.472;2024-02-15T13:05:22;18.08;71.73
71175;DHT22;58876;51.994;4.472;2024-02-15T13:07:51;18.28;71.90
71175;DHT22;58876;51.994;4.472;2024-02-15T13:10:17;18.47;71.62
71175;DHT22;58876;51.994;4.472;2024-02-15T13:12:44;18.59;70.70
71175;DHT22;58876;51.994;4.472;2024-02-15T13:15:11;18.43;71.50
71175;DHT22;58876;51.994;4.472;2024-02-15T13:17:49;18.10;72.06
71175;DHT22;58876;51.994;4.472;2024-02-15T13:20:19;18.19;72.06
71175;DHT22;58876;51.994;4.472;2024-02-15T13:22:47;18.25;72.56
71175;DHT22;58876;51.994;4.472;2024-02-15T13:25:16;18.12;71.33
71175;DHT22;58876;51.994;4.472;2024-02-15T13:27:42;18.22;71.67
71175;DHT22;58876;51.994;4.472;2024-02-15T13:30:09;18.25;71.13
71175;DHT22;58876;51.994;4.472;2024-02-15T13:32:39;18.50;70.70
71175;DHT22;58876;51.994;4.472;2024-02-15T13:35:09;18.80;70.86
71175;DHT22;58876;51.994;4.472;2024-02-15T13:37:47;18.54;70.60
71175;DHT22;58876;51.994;4.472;2024-02-15T13:40:14;18.71;70.98
71175;DHT22;58876;51.994;4.472;2024-02-15T13:42:45;19.01;69.95
71175;DHT22;58876;51.994;4.472;2024-02-15T13:45:16;18.80;68.67
71175;DHT22;58876;51.994;4.472;2024-02-15T13:47:45;18.71;69.09
71175;DHT22;58876;51.994;4.472;2024-02-15T13:50:11;18.65;69.83
71175;DHT22;58876;51.994;4.472;2024-02-15T13:52:40;18.54;69.98
71175;DHT22;58876;51.994;4.472;2024-02-15T13:55:13;18.59;70.52
71175;DHT22;58876;51.994;4.472;2024-02-15T13:57:41;18.56;70.24
71175;DHT22;58876;51.994;4.472;2024-02-15T14:00:11;18.59;69.58
71175;DHT22;58876;51.994;4.472;2024-02-15T14:02:53;18.25;69.89
71175;DHT22;58876;51.994;4.472;2024-02-15T14:05:21;18.17;70.47
71175;DHT22;58876;51.994;4.472;2024-02-15T14:07:54;18.19;70.24
71175;DHT22;58876;51.994;4.472;2024-02-15T14:10:21;18.17;71.06
71175;DHT22;58876;51.994;4.472;2024-02-15T14:12:48;18.14;70.50
71175;DHT22;58876;51.994;4.472;2024-02-15T14:15:17;18.12;69.52
71175;DHT22;58876;51.994;4.472;2024-02-15T14:17:42;18.16;69.50
71175;DHT22;58876;51.994;4.472;2024-02-15T14:20:10;18.30;69.91
71175;DHT22;58876;51.994;4.472;2024-02-15T14:22:50;18.10;69.27
71175;DHT22;58876;51.994;4.472;2024-02-15T14:25:21;18.17;69.68
71175;DHT22;58876;51.994;4.472;2024-02-15T14:27:47;18.14;68.81
71175;DHT22;58876;51.994;4.472;2024-02-15T14:30:13;18.13;69.06
71175;DHT22;58876;51.994;4.472;2024-02-15T14:33:00;18.12;69.56
71175;DHT22;58876;51.994;4.472;2024-02-15T14:35:30;18.67;67.92
71175;DHT22;58876;51.994;4.472;2024-02-15T14:38:03;18.95;67.21
71175;DHT22;58876;51.994;4.472;2024-02-15T14:40:36;19.20;66.95
71175;DHT22;58876;51.994;4.472;2024-02-15T14:43:02;19.12;67.25
71175;DHT22;58876;51.994;4.472;2024-02-15T14:45:31;18.97;67.50
71175;DHT22;58876;51.994;4.472;2024-02-15T14:48:00;18.90;67.90
71175;DHT22;58876;51.994;4.472;2024-02-15T14:50:26;18.78;68.04
71175;DHT22;58876;51.994;4.472;2024-02-15T14:52:52;18.59;67.70
71175;DHT22;58876;51.994;4.472;2024-02-15T14:55:20;17.98;70.29
71175;DHT22;58876;51.994;4.472;2024-02-15T14:57:46;17.92;71.01
71175;DHT22;58876;51.994;4.472;2024-02-15T15:00:12;17.81;71.94
71175;DHT22;58876;51.994;4.472;2024-02-15T15:02:44;17.78;71.73
71175;DHT22;58876;51.994;4.472;2024-02-15T15:05:10;17.72;71.84
71175;DHT22;58876;51.994;4.472;2024-02-15T15:07:54;17.45;71.72
71175;DHT22;58876;51.994;4.472;2024-02-15T15:10:41;17.40;72.34
71175;DHT22;58876;51.994;4.472;2024-02-15T15:13:25;17.57;72.36
71175;DHT22;58876;51.994;4.472;2024-02-15T15:15:51;17.58;71.94
71175;DHT22;58876;51.994;4.472;2024-02-15T15:18:16;17.57;71.68
71175;DHT22;58876;51.994;4.472;2024-02-15T15:20:43;17.60;71.38
71175;DHT22;58876;51.994;4.472;2024-02-15T15:23:08;17.61;71.89
71175;DHT22;58876;51.994;4.472;2024-02-15T15:25:39;17.57;71.30
71175;DHT22;58876;51.994;4.472;2024-02-15T15:28:04;17.58;70.94
71175;DHT22;58876;51.994;4.472;2024-02-15T15:30:30;17.61;70.84
71175;DHT22;58876;51.994;4.472;2024-02-15T15:32:56;17.45;71.09
71175;DHT22;58876;51.994;4.472;2024-02-15T15:35:23;17.47;71.11
71175;DHT22;58876;51.994;4.472;2024-02-15T15:37:52;17.48;71.36
71175;DHT22;58876;51.994;4.472;2024-02-15T15:40:18;17.42;71.30
71175;DHT22;58876;51.994;4.472;2024-02-15T15:42:45;17.45;71.37
71175;DHT22;58876;51.994;4.472;2024-02-15T15:45:10;17.45;71.41
71175;DHT22;58876;51.994;4.472;2024-02-15T15:47:37;17.44;71.08
71175;DHT22;58876;51.994;4.472;2024-02-15T15:50:02;17.28;70.57
71175;DHT22;58876;51.994;4.472;2024-02-15T15:52:32;17.37;71.20
71175;DHT22;58876;51.994;4.472;2024-02-15T15:54:58;17.45;70.91